createdAt,value
2019-02-20T00:00:13.156Z,21.02
2019-02-20T00:02:42.123Z,21.01
2019-02-20T00:05:10.501Z,21.00
2019-02-20T00:07:38.865Z,20.99
2019-02-20T00:10:07.792Z,20.98
2019-02-20T00:12:36.274Z,20.97
2019-02-20T00:15:06.092Z,20.97
2019-02-20T00:17:34.527Z,20.96
2019-02-20T00:20:03.270Z,20.94
2019-02-20T00:22:40.054Z,20.93
2019-02-20T00:25:01.734Z,20.92
2019-02-20T00:27:30.117Z,20.92
2019-02-20T00:29:58.499Z,20.88
2019-02-20T00:32:26.877Z,20.88
2019-02-20T00:34:55.262Z,20.89
2019-02-20T00:37:23.634Z,20.87
2019-02-20T00:39:52.004Z,20.87
2019-02-20T00:42:20.393Z,20.86
2019-02-20T00:44:56.404Z,20.85
2019-02-20T00:47:32.465Z,20.84
2019-02-20T00:50:00.839Z,20.84
2019-02-20T00:52:49.789Z,20.82
2019-02-20T00:55:15.988Z,20.82
2019-02-20T00:57:44.362Z,20.80
2019-02-20T01:00:14.047Z,20.79
2019-02-20T01:02:42.680Z,20.78
2019-02-20T01:05:11.055Z,20.76
2019-02-20T01:07:39.420Z,20.78
2019-02-20T01:10:08.834Z,20.77
2019-02-20T01:12:37.214Z,20.76
2019-02-20T01:15:08.858Z,20.74
2019-02-20T01:17:37.816Z,20.75
2019-02-20T01:20:08.934Z,20.74
2019-02-20T01:22:37.478Z,20.74
2019-02-20T01:25:06.601Z,20.74
2019-02-20T01:27:34.969Z,20.73
2019-02-20T01:30:04.379Z,20.72
2019-02-20T01:32:32.740Z,20.71
2019-02-20T01:35:01.117Z,20.71
2019-02-20T01:37:29.488Z,20.70
2019-02-20T01:39:57.868Z,20.69
2019-02-20T01:42:26.242Z,20.68
2019-02-20T01:44:54.605Z,20.68
2019-02-20T01:47:22.982Z,20.68
2019-02-20T01:49:51.363Z,20.67
2019-02-20T01:52:19.736Z,20.66
2019-02-20T01:54:48.101Z,20.64
2019-02-20T01:57:16.481Z,20.63
2019-02-20T01:59:44.851Z,20.63
2019-02-20T02:02:13.240Z,20.63
2019-02-20T02:04:41.599Z,20.63
2019-02-20T02:07:09.974Z,20.63
2019-02-20T02:09:38.341Z,20.62
2019-02-20T02:12:06.721Z,20.60
2019-02-20T02:14:35.142Z,20.60
2019-02-20T02:17:03.689Z,20.60
2019-02-20T02:19:32.054Z,20.59
2019-02-20T02:22:00.431Z,20.58
2019-02-20T02:24:28.800Z,20.57
2019-02-20T02:26:57.173Z,20.57
2019-02-20T02:29:25.557Z,20.56
2019-02-20T02:31:53.917Z,20.56
2019-02-20T02:34:22.285Z,20.56
2019-02-20T02:36:50.663Z,20.54
2019-02-20T02:39:19.024Z,20.54
2019-02-20T02:41:47.409Z,20.52
2019-02-20T02:44:15.764Z,20.52
2019-02-20T02:46:44.140Z,20.52
2019-02-20T02:49:12.515Z,20.50
2019-02-20T02:51:40.943Z,20.51
2019-02-20T02:54:09.297Z,20.51
2019-02-20T02:56:37.674Z,20.49
2019-02-20T02:59:06.048Z,20.49
2019-02-20T03:01:34.420Z,20.49
2019-02-20T03:04:02.788Z,20.47
2019-02-20T03:06:31.153Z,20.45
2019-02-20T03:08:59.597Z,20.45
2019-02-20T03:11:27.966Z,20.46
2019-02-20T03:13:56.344Z,20.44
2019-02-20T03:16:24.723Z,20.44
2019-02-20T03:18:53.105Z,20.42
2019-02-20T03:21:21.476Z,20.43
2019-02-20T03:23:49.844Z,20.42
2019-02-20T03:26:18.209Z,20.40
2019-02-20T03:28:46.585Z,20.39
2019-02-20T03:31:14.989Z,20.38
2019-02-20T03:33:43.937Z,20.38
2019-02-20T03:36:12.286Z,20.38
2019-02-20T03:38:40.661Z,20.37
2019-02-20T03:41:09.053Z,20.35
2019-02-20T03:43:37.466Z,20.35
2019-02-20T03:46:05.833Z,20.35
2019-02-20T03:48:34.210Z,20.34
2019-02-20T03:51:02.573Z,20.33
2019-02-20T03:53:30.949Z,20.33
2019-02-20T03:56:00.086Z,20.34
2019-02-20T03:58:28.463Z,20.32
2019-02-20T04:00:56.829Z,20.32
2019-02-20T04:03:25.205Z,20.32
2019-02-20T04:05:53.578Z,20.30
2019-02-20T04:08:21.949Z,20.28
2019-02-20T04:10:50.317Z,20.29
2019-02-20T04:13:20.055Z,20.29
2019-02-20T04:15:48.343Z,20.30
2019-02-20T04:18:16.720Z,20.28
2019-02-20T04:20:45.081Z,20.28
2019-02-20T04:23:14.357Z,20.28
2019-02-20T04:25:42.724Z,20.28
2019-02-20T04:28:11.111Z,20.27
2019-02-20T04:30:39.473Z,20.26
2019-02-20T04:33:07.966Z,20.26
2019-02-20T04:35:36.598Z,20.25
2019-02-20T04:38:04.972Z,20.24
2019-02-20T04:40:33.338Z,20.24
2019-02-20T04:43:01.705Z,20.24
2019-02-20T04:45:30.083Z,20.25
2019-02-20T04:47:58.447Z,20.23
2019-02-20T04:50:26.827Z,20.23
2019-02-20T04:52:55.185Z,20.22
2019-02-20T04:55:23.559Z,20.21
2019-02-20T04:58:11.303Z,20.21
2019-02-20T05:00:39.721Z,20.20
2019-02-20T05:03:08.043Z,20.20
2019-02-20T05:05:36.425Z,20.19
2019-02-20T05:08:04.779Z,20.19
2019-02-20T05:10:33.159Z,20.18
2019-02-20T05:13:01.528Z,20.18
2019-02-20T05:15:29.899Z,20.18
2019-02-20T05:17:58.268Z,20.18
2019-02-20T05:20:26.647Z,20.17
2019-02-20T05:22:55.005Z,20.16
2019-02-20T05:25:23.383Z,20.17
2019-02-20T05:27:51.745Z,20.16
2019-02-20T05:30:20.122Z,20.15
2019-02-20T05:32:48.494Z,20.16
2019-02-20T05:35:16.868Z,20.15
2019-02-20T05:37:45.241Z,20.15
2019-02-20T05:40:13.612Z,20.14
2019-02-20T05:42:41.989Z,20.14
2019-02-20T05:45:10.365Z,20.14
2019-02-20T05:47:38.752Z,20.14
2019-02-20T05:50:08.072Z,20.14
2019-02-20T05:52:36.510Z,20.13
2019-02-20T05:55:06.517Z,20.13
2019-02-20T05:57:36.452Z,20.12
2019-02-20T06:00:08.183Z,20.13
2019-02-20T06:02:36.552Z,20.12
2019-02-20T06:05:06.180Z,20.12
2019-02-20T06:07:34.541Z,20.12
2019-02-20T06:10:03.083Z,20.12
2019-02-20T06:12:31.443Z,20.12
2019-02-20T06:14:59.819Z,20.12
2019-02-20T06:17:28.183Z,20.13
2019-02-20T06:19:56.573Z,20.12
2019-02-20T06:22:24.933Z,20.11
2019-02-20T06:24:53.309Z,20.11
2019-02-20T06:27:21.684Z,20.11
2019-02-20T06:29:50.084Z,20.12
2019-02-20T06:32:18.472Z,20.12
2019-02-20T06:34:46.858Z,20.13
2019-02-20T06:37:15.588Z,20.12
2019-02-20T06:39:43.967Z,20.12
2019-02-20T06:42:12.332Z,20.11
2019-02-20T06:44:40.697Z,20.13
2019-02-20T06:47:09.071Z,20.12
2019-02-20T06:49:37.438Z,20.12
2019-02-20T06:52:05.828Z,20.11
2019-02-20T06:54:34.182Z,20.11
2019-02-20T06:57:02.572Z,20.11
2019-02-20T06:59:30.957Z,20.10
2019-02-20T07:01:59.333Z,20.10
2019-02-20T07:04:27.703Z,20.10
2019-02-20T07:07:05.320Z,20.10
2019-02-20T07:09:42.138Z,20.11
2019-02-20T07:12:13.572Z,20.07
2019-02-20T07:15:10.672Z,20.07
2019-02-20T07:18:14.014Z,20.07
2019-02-20T07:20:45.445Z,20.05
2019-02-20T07:23:19.436Z,20.04
2019-02-20T07:26:07.581Z,20.04
2019-02-20T07:28:47.665Z,20.04
2019-02-20T07:31:16.034Z,20.04
2019-02-20T07:33:44.411Z,20.04
2019-02-20T07:36:12.781Z,20.05
2019-02-20T07:38:41.172Z,20.08
2019-02-20T07:41:09.533Z,20.09
2019-02-20T07:43:37.909Z,20.11
2019-02-20T07:46:06.276Z,20.12
2019-02-20T07:48:34.671Z,20.13
2019-02-20T07:51:03.022Z,20.14
2019-02-20T07:53:31.400Z,20.13
2019-02-20T07:55:59.773Z,20.13
2019-02-20T07:58:28.149Z,20.12
2019-02-20T08:00:56.513Z,20.13
2019-02-20T08:03:24.896Z,20.15
2019-02-20T08:05:53.558Z,20.15
2019-02-20T08:08:21.921Z,20.16
2019-02-20T08:10:50.295Z,20.20
2019-02-20T08:13:18.662Z,20.22
2019-02-20T08:15:47.032Z,20.24
2019-02-20T08:18:16.644Z,20.27
2019-02-20T08:20:45.024Z,20.30
2019-02-20T08:23:13.427Z,20.35
2019-02-20T08:25:41.801Z,20.35
2019-02-20T08:28:10.165Z,20.46
2019-02-20T08:30:38.540Z,20.49
2019-02-20T08:33:06.907Z,20.54
2019-02-20T08:35:35.288Z,20.58
2019-02-20T08:38:03.644Z,20.59
2019-02-20T08:40:32.034Z,20.65
2019-02-20T08:43:00.401Z,20.67
2019-02-20T08:45:28.783Z,20.69
2019-02-20T08:47:57.156Z,20.70
2019-02-20T08:50:25.538Z,20.72
2019-02-20T08:52:53.918Z,20.70
2019-02-20T08:55:22.304Z,20.71
2019-02-20T08:57:52.065Z,20.76
2019-02-20T09:00:21.044Z,20.79
2019-02-20T09:02:49.475Z,20.79
2019-02-20T09:05:17.848Z,20.83
2019-02-20T09:07:46.891Z,20.83
2019-02-20T09:10:17.310Z,20.84
2019-02-20T09:12:45.631Z,20.86
2019-02-20T09:15:14.499Z,20.85
2019-02-20T09:17:42.840Z,20.85
2019-02-20T09:20:11.886Z,20.86
2019-02-20T09:22:40.253Z,20.85
2019-02-20T09:25:19.637Z,20.87
2019-02-20T09:27:41.392Z,20.93
2019-02-20T09:30:14.412Z,21.00
2019-02-20T09:32:42.777Z,21.04
2019-02-20T09:35:11.691Z,21.08
2019-02-20T09:37:40.059Z,21.10
2019-02-20T09:40:11.981Z,21.13
2019-02-20T09:42:40.773Z,21.17
2019-02-20T09:45:09.622Z,21.22
2019-02-20T09:47:37.983Z,21.27
2019-02-20T09:50:08.190Z,21.33
2019-02-20T09:52:36.573Z,21.40
2019-02-20T09:55:07.697Z,21.45
2019-02-20T09:57:36.080Z,21.50
2019-02-20T10:00:06.921Z,21.53
2019-02-20T10:02:35.307Z,21.56
2019-02-20T10:05:03.665Z,21.62
2019-02-20T10:07:32.048Z,21.62
2019-02-20T10:10:00.409Z,21.66
2019-02-20T10:12:28.785Z,21.69
2019-02-20T10:14:57.157Z,21.72
2019-02-20T10:17:25.535Z,21.74
2019-02-20T10:19:53.897Z,21.80
2019-02-20T10:22:22.342Z,21.81
2019-02-20T10:24:50.706Z,21.82
2019-02-20T10:27:19.081Z,21.84
2019-02-20T10:29:47.584Z,21.87
2019-02-20T10:32:15.972Z,21.89
2019-02-20T10:34:44.325Z,21.92
2019-02-20T10:37:12.701Z,21.93
2019-02-20T10:39:41.067Z,21.95
2019-02-20T10:42:09.445Z,21.95
2019-02-20T10:44:37.810Z,21.97
2019-02-20T10:47:06.193Z,21.98
2019-02-20T10:49:34.571Z,21.99
2019-02-20T10:52:02.948Z,22.00
2019-02-20T10:54:31.314Z,22.01
2019-02-20T10:56:59.692Z,22.02
2019-02-20T10:59:28.056Z,22.04
2019-02-20T11:01:56.432Z,22.07
2019-02-20T11:04:24.798Z,22.07
2019-02-20T11:06:53.175Z,22.08
2019-02-20T11:09:21.641Z,22.08
2019-02-20T11:11:50.030Z,22.05
2019-02-20T11:14:18.398Z,22.02
2019-02-20T11:16:47.002Z,22.03
2019-02-20T11:19:15.732Z,21.96
2019-02-20T11:21:44.224Z,21.90
2019-02-20T11:24:12.587Z,21.83
2019-02-20T11:26:51.947Z,21.78
2019-02-20T11:29:11.051Z,21.75
2019-02-20T11:31:39.425Z,21.71
2019-02-20T11:34:07.814Z,21.68
2019-02-20T11:36:36.187Z,21.67
2019-02-20T11:39:05.507Z,21.66
2019-02-20T11:41:33.866Z,21.65
2019-02-20T11:44:02.250Z,21.63
2019-02-20T11:46:30.622Z,21.62
2019-02-20T11:48:59.017Z,21.61
2019-02-20T11:51:27.374Z,21.60
2019-02-20T11:53:55.752Z,21.61
2019-02-20T11:56:26.689Z,21.61
2019-02-20T11:58:54.225Z,21.61
2019-02-20T12:01:22.592Z,21.60
2019-02-20T12:03:50.966Z,21.60
2019-02-20T12:06:19.333Z,21.60
2019-02-20T12:08:48.537Z,21.60
2019-02-20T12:11:16.915Z,21.60
2019-02-20T12:13:45.307Z,21.60
2019-02-20T12:16:13.669Z,21.61
2019-02-20T12:18:42.045Z,21.62
2019-02-20T12:21:10.415Z,21.63
2019-02-20T12:23:38.793Z,21.64
2019-02-20T12:26:07.237Z,21.63
2019-02-20T12:28:35.616Z,21.64
2019-02-20T12:31:03.992Z,21.64
2019-02-20T12:33:32.377Z,21.64
2019-02-20T12:36:00.746Z,21.65
2019-02-20T12:38:29.124Z,21.65
2019-02-20T12:40:57.485Z,21.65
2019-02-20T12:43:25.863Z,21.65
2019-02-20T12:45:54.293Z,21.66
2019-02-20T12:48:22.674Z,21.66
2019-02-20T12:50:51.045Z,21.66
2019-02-20T12:53:19.420Z,21.66
2019-02-20T12:55:47.799Z,21.67
2019-02-20T12:58:16.180Z,21.67
2019-02-20T13:00:44.555Z,21.68
2019-02-20T13:03:12.911Z,21.70
2019-02-20T13:05:42.495Z,21.68
2019-02-20T13:08:10.984Z,21.70
2019-02-20T13:10:39.406Z,21.70
2019-02-20T13:13:07.772Z,21.70
2019-02-20T13:15:36.261Z,21.71
2019-02-20T13:18:04.631Z,21.70
2019-02-20T13:20:33.006Z,21.70
2019-02-20T13:23:01.376Z,21.71
2019-02-20T13:25:29.807Z,21.73
2019-02-20T13:27:58.169Z,21.71
2019-02-20T13:30:26.544Z,21.71
2019-02-20T13:32:54.915Z,21.72
2019-02-20T13:35:23.298Z,21.71
2019-02-20T13:37:51.660Z,21.72
2019-02-20T13:40:20.118Z,21.71
2019-02-20T13:42:49.367Z,21.72
2019-02-20T13:45:17.811Z,21.72
2019-02-20T13:47:46.223Z,21.73
2019-02-20T13:50:14.597Z,21.72
2019-02-20T13:52:51.799Z,21.73
2019-02-20T13:55:13.590Z,21.72
2019-02-20T13:57:42.021Z,21.73
2019-02-20T14:00:13.390Z,21.71
2019-02-20T14:02:41.953Z,21.72
2019-02-20T14:05:10.443Z,21.72
2019-02-20T14:07:39.581Z,21.71
2019-02-20T14:10:12.543Z,21.72
2019-02-20T14:12:40.906Z,21.72
2019-02-20T14:15:11.525Z,21.72
2019-02-20T14:17:39.960Z,21.72
2019-02-20T14:20:10.582Z,21.71
2019-02-20T14:22:39.295Z,21.72
2019-02-20T14:25:09.621Z,21.71
2019-02-20T14:27:37.971Z,21.71
2019-02-20T14:30:09.493Z,21.70
2019-02-20T14:32:37.865Z,21.70
2019-02-20T14:35:09.251Z,21.70
2019-02-20T14:37:39.299Z,21.70
2019-02-20T14:40:09.350Z,21.70
2019-02-20T14:42:37.734Z,21.71
2019-02-20T14:45:15.606Z,21.70
2019-02-20T14:47:43.968Z,21.71
2019-02-20T14:50:12.886Z,21.71
2019-02-20T14:52:41.426Z,21.70
2019-02-20T14:55:10.740Z,21.70
2019-02-20T14:57:39.106Z,21.70
2019-02-20T15:00:12.689Z,21.70
2019-02-20T15:02:41.052Z,21.71
2019-02-20T15:05:09.812Z,21.71
2019-02-20T15:07:39.909Z,21.72
2019-02-20T15:10:09.424Z,21.71
2019-02-20T15:12:37.818Z,21.71
2019-02-20T15:15:10.858Z,21.72
2019-02-20T15:17:39.438Z,21.66
2019-02-20T15:20:11.114Z,21.66
2019-02-20T15:22:39.423Z,21.71
2019-02-20T15:25:09.235Z,21.71
2019-02-20T15:27:37.610Z,21.71
2019-02-20T15:30:12.559Z,21.71
2019-02-20T15:32:41.083Z,21.71
2019-02-20T15:35:09.633Z,21.72
2019-02-20T15:37:38.014Z,21.71
2019-02-20T15:40:08.721Z,21.71
2019-02-20T15:42:37.098Z,21.71
2019-02-20T15:45:10.028Z,21.71
2019-02-20T15:47:38.470Z,21.71
2019-02-20T15:50:10.173Z,21.70
2019-02-20T15:52:39.775Z,21.69
2019-02-20T15:55:11.374Z,21.69
2019-02-20T15:57:39.922Z,21.69
2019-02-20T16:00:19.522Z,21.68
2019-02-20T16:02:47.897Z,21.70
2019-02-20T16:05:16.652Z,21.70
2019-02-20T16:07:45.024Z,21.70
2019-02-20T16:10:13.391Z,21.68
2019-02-20T16:12:43.128Z,21.70
2019-02-20T16:15:11.678Z,21.69
2019-02-20T16:17:40.062Z,21.68
2019-02-20T16:20:12.560Z,21.69
2019-02-20T16:22:40.963Z,21.68
2019-02-20T16:25:12.070Z,21.67
2019-02-20T16:27:46.693Z,21.67
2019-02-20T16:30:12.819Z,21.67
2019-02-20T16:32:41.200Z,21.66
2019-02-20T16:35:11.606Z,21.67
2019-02-20T16:37:40.089Z,21.66
2019-02-20T16:40:11.397Z,21.65
2019-02-20T16:42:39.858Z,21.65
2019-02-20T16:45:16.941Z,21.65
2019-02-20T16:47:45.496Z,21.65
2019-02-20T16:50:14.037Z,21.64
2019-02-20T16:52:42.415Z,21.64
2019-02-20T16:55:10.949Z,21.64
2019-02-20T16:57:39.499Z,21.64
2019-02-20T17:00:12.265Z,21.63
2019-02-20T17:02:40.898Z,21.64
2019-02-20T17:05:15.975Z,21.63
2019-02-20T17:07:44.728Z,21.63
2019-02-20T17:10:14.376Z,21.63
2019-02-20T17:12:42.993Z,21.62
2019-02-20T17:15:13.873Z,21.61
2019-02-20T17:17:42.345Z,21.62
2019-02-20T17:20:17.510Z,21.60
2019-02-20T17:22:45.613Z,21.60
2019-02-20T17:25:14.522Z,21.60
2019-02-20T17:27:42.971Z,21.60
2019-02-20T17:30:14.065Z,21.59
2019-02-20T17:32:42.506Z,21.59
2019-02-20T17:35:11.426Z,21.60
2019-02-20T17:37:39.785Z,21.59
2019-02-20T17:40:13.247Z,21.58
2019-02-20T17:42:41.616Z,21.57
2019-02-20T17:45:15.699Z,21.57
2019-02-20T17:47:44.533Z,21.57
2019-02-20T17:50:17.830Z,21.57
2019-02-20T17:52:46.338Z,21.57
2019-02-20T17:55:14.784Z,21.56
2019-02-20T17:57:43.148Z,21.56
2019-02-20T18:00:13.532Z,21.56
2019-02-20T18:02:41.898Z,21.55
2019-02-20T18:05:10.480Z,21.55
2019-02-20T18:07:38.846Z,21.55
2019-02-20T18:10:09.735Z,21.54
2019-02-20T18:12:38.189Z,21.53
2019-02-20T18:15:11.258Z,21.53
2019-02-20T18:17:39.778Z,21.52
2019-02-20T18:20:09.921Z,21.51
2019-02-20T18:22:38.360Z,21.52
2019-02-20T18:25:11.498Z,21.52
2019-02-20T18:27:39.864Z,21.50
2019-02-20T18:30:11.383Z,21.50
2019-02-20T18:32:39.745Z,21.51
2019-02-20T18:35:10.618Z,21.51
2019-02-20T18:37:38.940Z,21.51
2019-02-20T18:40:10.295Z,21.52
2019-02-20T18:42:38.662Z,21.50
2019-02-20T18:45:09.949Z,21.50
2019-02-20T18:47:38.312Z,21.50
2019-02-20T18:50:09.426Z,21.51
2019-02-20T18:52:37.791Z,21.50
2019-02-20T18:55:09.021Z,21.50
2019-02-20T18:57:37.376Z,21.50
2019-02-20T19:00:11.610Z,21.50
2019-02-20T19:02:40.049Z,21.50
2019-02-20T19:05:09.575Z,21.49
2019-02-20T19:07:37.930Z,21.49
2019-02-20T19:10:30.994Z,21.49
2019-02-20T19:13:11.431Z,21.49
2019-02-20T19:15:57.840Z,21.49
2019-02-20T19:18:35.038Z,21.47
2019-02-20T19:21:12.609Z,21.45
2019-02-20T19:24:00.344Z,21.45
2019-02-20T19:26:34.418Z,21.44
2019-02-20T19:29:08.573Z,21.42
2019-02-20T19:32:04.423Z,21.41
2019-02-20T19:34:41.660Z,21.41
2019-02-20T19:37:21.449Z,21.39
2019-02-20T19:39:56.081Z,21.38
2019-02-20T19:42:39.695Z,21.37
2019-02-20T19:45:32.260Z,21.37
2019-02-20T19:48:03.665Z,21.35
2019-02-20T19:50:50.120Z,21.34
2019-02-20T19:53:33.759Z,21.34
2019-02-20T19:56:08.145Z,21.33
2019-02-20T19:58:57.634Z,21.32
2019-02-20T20:02:01.342Z,21.32
2019-02-20T20:04:44.686Z,21.30
2019-02-20T20:07:36.778Z,21.27
2019-02-20T20:10:17.019Z,21.27
2019-02-20T20:12:48.470Z,21.26
2019-02-20T20:15:28.358Z,21.25
2019-02-20T20:18:15.017Z,21.25
2019-02-20T20:21:03.423Z,21.25
2019-02-20T20:23:43.819Z,21.24
2019-02-20T20:26:36.207Z,21.23
2019-02-20T20:29:28.343Z,21.22
2019-02-20T20:31:59.736Z,21.22
2019-02-20T20:34:33.974Z,21.20
2019-02-20T20:37:17.222Z,21.21
2019-02-20T20:40:07.617Z,21.20
2019-02-20T20:42:56.883Z,21.20
2019-02-20T20:45:40.085Z,21.19
2019-02-20T20:48:41.477Z,21.19
2019-02-20T20:51:27.525Z,21.18
2019-02-20T20:54:14.103Z,21.16
2019-02-20T20:57:03.528Z,21.15
2019-02-20T20:59:43.618Z,21.14
2019-02-20T21:02:15.283Z,21.13
2019-02-20T21:04:58.737Z,21.11
2019-02-20T21:07:32.748Z,21.11
2019-02-20T21:10:13.046Z,21.10
2019-02-20T21:13:04.003Z,21.09
2019-02-20T21:15:44.507Z,21.10
2019-02-20T21:18:27.732Z,21.08
2019-02-20T21:21:07.906Z,21.07
2019-02-20T21:24:01.778Z,21.05
2019-02-20T21:26:38.078Z,21.06
2019-02-20T21:29:15.223Z,21.04
2019-02-20T21:31:55.504Z,21.03
2019-02-20T21:34:43.259Z,21.02
2019-02-20T21:37:31.041Z,21.01
2019-02-20T21:40:20.705Z,21.01
2019-02-20T21:42:52.136Z,21.00
2019-02-20T21:45:26.505Z,20.98
2019-02-20T21:48:06.797Z,20.96
2019-02-20T21:50:43.992Z,20.97
2019-02-20T21:53:41.050Z,20.96
2019-02-20T21:56:27.108Z,20.96
2019-02-20T21:59:20.575Z,20.93
2019-02-20T22:02:00.684Z,20.94
2019-02-20T22:04:48.471Z,20.92
2019-02-20T22:07:28.952Z,20.92
2019-02-20T22:10:16.841Z,20.90
2019-02-20T22:13:10.994Z,20.89
2019-02-20T22:16:03.066Z,20.89
2019-02-20T22:18:34.552Z,20.87
2019-02-20T22:21:14.741Z,20.85
2019-02-20T22:23:51.737Z,20.85
2019-02-20T22:26:40.941Z,20.83
2019-02-20T22:29:30.258Z,20.82
2019-02-20T22:32:22.945Z,20.81
2019-02-20T22:35:23.070Z,20.80
2019-02-20T22:38:16.648Z,20.78
2019-02-20T22:40:48.071Z,20.76
2019-02-20T22:43:31.269Z,20.75
2019-02-20T22:46:11.621Z,20.74
2019-02-20T22:48:46.042Z,20.72
2019-02-20T22:51:40.046Z,20.71
2019-02-20T22:54:11.488Z,20.72
2019-02-20T22:56:42.905Z,20.70
2019-02-20T22:59:28.913Z,20.70
2019-02-20T23:02:26.294Z,20.69
2019-02-20T23:04:57.859Z,20.69
2019-02-20T23:07:38.399Z,20.67
2019-02-20T23:10:35.962Z,20.67
2019-02-20T23:13:19.745Z,20.66
2019-02-20T23:15:48.176Z,20.63
2019-02-20T23:18:16.550Z,20.63
2019-02-20T23:20:44.928Z,20.62
2019-02-20T23:23:13.294Z,20.63
2019-02-20T23:25:41.670Z,20.62
2019-02-20T23:28:10.044Z,20.62
2019-02-20T23:30:38.423Z,20.61
2019-02-20T23:33:06.794Z,20.60
2019-02-20T23:35:35.248Z,20.59
2019-02-20T23:38:03.614Z,20.59
2019-02-20T23:40:32.007Z,20.59
2019-02-20T23:43:00.372Z,20.59
2019-02-20T23:45:28.753Z,20.58
2019-02-20T23:47:57.132Z,20.57
2019-02-20T23:50:25.492Z,20.56
2019-02-20T23:52:54.460Z,20.55
2019-02-20T23:55:22.836Z,20.55
2019-02-20T23:57:51.207Z,20.53
